KBOK/BOK METAR and TAF weather

Enter ICAO airport designator
Station Type Date Time Source
KBOK METAR 2019/10/18 05:56 UTC NOAA

KBOK 180556Z AUTO 00000KT 2 1/2SM -RA BR OVC003 11/11 A3004 RMK AO2 SLP174 P0016 60062 T01060106 10122 20106 51015


Station Type Date Time Source
KBOK Decoded METAR 2019/10/18 05:56 UTC NOAA

Brookings, Brookings Airport, OR, United States (KBOK) 42-04-28N 124-17-24W
Oct 18, 2019 - 01:56 AM EDT / 2019.10.18 0556 UTC
Wind: Calm:0
Visibility: 2 1/2 mile(s):0
Sky conditions: overcast
Weather: light rain; mist
Precipitation last hour: 0.16 inches
Temperature: 51.1 F (10.6 C)
Dew Point: 51.1 F (10.6 C)
Relative Humidity: 100%
Pressure (altimeter): 30.04 in. Hg (1017 hPa)
Pressure tendency: 0.04 inches (1.5 hPa) higher than three hours ago
ob: KBOK 180556Z AUTO 00000KT 2 1/2SM -RA BR OVC003 11/11 A3004 RMK AO2 SLP174 P0016 60062 T01060106 10122 20106 51015
cycle: 6

Station Type Date Time Source
KBOK TAF UTC NOAA

Error!

Example: see airport list